createdAt,value
2023-04-18T00:01:40.162Z,10.90
2023-04-18T00:04:07.976Z,10.85
2023-04-18T00:06:37.494Z,10.20
2023-04-18T00:09:08.798Z,10.32
2023-04-18T00:11:39.808Z,10.63
2023-04-18T00:14:11.299Z,10.73
2023-04-18T00:16:38.844Z,10.52
2023-04-18T00:21:54.473Z,9.80
2023-04-18T00:24:22.994Z,9.90
2023-04-18T00:26:54.037Z,10.82
2023-04-18T00:29:24.765Z,10.40
2023-04-18T00:34:25.820Z,9.98
2023-04-18T00:36:53.060Z,10.60
2023-04-18T00:39:20.097Z,10.45
2023-04-18T00:41:46.881Z,11.05
2023-04-18T00:44:15.824Z,10.95
2023-04-18T00:46:46.354Z,11.13
2023-04-18T00:49:15.930Z,10.75
2023-04-18T00:51:44.585Z,10.88
2023-04-18T00:54:13.769Z,11.60
2023-04-18T01:02:15.613Z,11.40
2023-04-18T01:04:48.250Z,10.35
2023-04-18T01:07:19.540Z,11.05
2023-04-18T01:09:48.178Z,11.27
2023-04-18T01:12:17.332Z,11.38
2023-04-18T01:14:50.606Z,11.18
2023-04-18T01:17:20.375Z,11.13
2023-04-18T01:19:48.587Z,11.43
2023-04-18T01:24:59.265Z,11.18
2023-04-18T01:27:28.162Z,11.73
2023-04-18T01:29:55.984Z,11.57
2023-04-18T01:32:32.399Z,11.50
2023-04-18T01:35:01.776Z,11.40
2023-04-18T01:37:30.177Z,11.48
2023-04-18T01:39:58.985Z,11.23
2023-04-18T01:42:30.504Z,11.70
2023-04-18T01:47:46.410Z,12.25
2023-04-18T01:50:19.945Z,12.10
2023-04-18T01:52:57.718Z,11.70
2023-04-18T01:55:27.609Z,12.02
2023-04-18T01:58:06.987Z,12.15
2023-04-18T02:00:38.551Z,12.23
2023-04-18T02:03:07.895Z,11.60
2023-04-18T02:05:38.430Z,11.90
2023-04-18T02:08:05.539Z,11.52
2023-04-18T02:10:44.666Z,12.40
2023-04-18T02:13:15.615Z,12.63
2023-04-18T02:15:51.155Z,12.85
2023-04-18T02:18:24.820Z,13.30
2023-04-18T02:21:03.731Z,12.65
2023-04-18T02:23:31.812Z,12.68
2023-04-18T02:25:59.999Z,13.10
2023-04-18T02:28:28.404Z,12.98
2023-04-18T02:30:56.922Z,14.02
2023-04-18T02:36:18.434Z,14.13
2023-04-18T02:38:48.874Z,13.27
2023-04-18T02:41:19.580Z,13.18
2023-04-18T02:43:46.855Z,13.65
2023-04-18T02:46:16.453Z,14.02
2023-04-18T02:48:46.643Z,13.38
2023-04-18T02:51:15.812Z,15.07
2023-04-18T02:53:45.566Z,14.05
2023-04-18T02:56:25.992Z,13.83
2023-04-18T02:59:02.186Z,13.98
2023-04-18T03:01:34.633Z,15.02
2023-04-18T03:07:02.933Z,15.18
2023-04-18T03:09:35.616Z,14.02
2023-04-18T03:12:11.510Z,14.65
2023-04-18T03:14:40.119Z,14.45
2023-04-18T03:17:08.876Z,13.82
2023-04-18T03:19:46.607Z,15.30
2023-04-18T03:22:17.495Z,15.18
2023-04-18T03:24:45.530Z,14.98
2023-04-18T03:27:19.217Z,15.25
2023-04-18T03:29:46.303Z,14.98
2023-04-18T03:32:18.860Z,15.73
2023-04-18T03:34:47.618Z,15.00
2023-04-18T03:37:19.417Z,15.57
2023-04-18T03:39:49.424Z,15.18
2023-04-18T03:42:17.174Z,17.40
2023-04-18T03:44:44.277Z,16.92
2023-04-18T03:47:18.616Z,15.50
2023-04-18T03:49:45.915Z,16.20
2023-04-18T03:52:15.174Z,16.98
2023-04-18T03:54:47.483Z,17.77
2023-04-18T03:57:14.626Z,16.50
2023-04-18T03:59:43.909Z,17.73
2023-04-18T04:02:13.983Z,17.00
2023-04-18T04:04:49.182Z,18.40
2023-04-18T04:07:18.851Z,16.70
2023-04-18T04:09:49.024Z,17.63
2023-04-18T04:12:15.830Z,17.20
2023-04-18T04:14:51.445Z,17.90
2023-04-18T04:17:19.001Z,18.05
2023-04-18T04:22:30.292Z,17.80
2023-04-18T04:24:58.284Z,17.52
2023-04-18T04:27:33.691Z,17.63
2023-04-18T04:30:04.459Z,17.65
2023-04-18T04:32:42.893Z,17.83
2023-04-18T04:35:17.337Z,18.55
2023-04-18T04:37:50.284Z,18.25
2023-04-18T04:40:22.670Z,17.20
2023-04-18T04:43:12.654Z,18.15
2023-04-18T04:45:57.069Z,18.42
2023-04-18T04:48:32.834Z,18.20
2023-04-18T04:51:03.276Z,17.95
2023-04-18T04:53:33.036Z,16.80
2023-04-18T04:56:14.440Z,17.63
2023-04-18T04:58:43.250Z,17.55
2023-04-18T05:01:30.628Z,17.98
2023-04-18T05:04:08.704Z,17.27
2023-04-18T05:09:21.735Z,16.45
2023-04-18T05:11:50.236Z,16.60
2023-04-18T05:14:18.478Z,17.23
2023-04-18T05:17:13.782Z,15.95
2023-04-18T05:19:50.428Z,15.40
2023-04-18T05:25:10.251Z,16.23
2023-04-18T05:36:17.442Z,14.10
2023-04-18T05:38:56.364Z,14.20
2023-04-18T05:41:29.116Z,14.68
2023-04-18T05:44:05.643Z,14.75
2023-04-18T05:46:45.377Z,14.20
2023-04-18T05:49:14.987Z,13.60
2023-04-18T05:55:00.336Z,14.05
2023-04-18T06:01:15.558Z,14.18
2023-04-18T06:03:46.929Z,13.40
2023-04-18T06:06:19.988Z,13.57
2023-04-18T06:18:15.400Z,13.93
2023-04-18T06:21:01.972Z,13.73
2023-04-18T06:29:14.473Z,13.63
2023-04-18T06:37:13.572Z,13.43
2023-04-18T06:39:44.504Z,13.75
2023-04-18T06:42:29.771Z,13.23
2023-04-18T06:45:11.066Z,12.73
2023-04-18T06:53:18.072Z,12.30
2023-04-18T06:56:07.260Z,13.35
2023-04-18T06:58:36.649Z,12.90
2023-04-18T07:04:07.233Z,12.43
2023-04-18T07:06:36.604Z,13.68
2023-04-18T07:09:14.958Z,12.18
2023-04-18T07:11:54.004Z,11.95
2023-04-18T07:29:41.209Z,11.40
2023-04-18T07:32:32.960Z,10.90
2023-04-18T07:36:00.993Z,10.02
2023-04-18T07:44:11.571Z,9.88
2023-04-18T07:49:43.819Z,10.18
2023-04-18T07:55:37.566Z,9.48
2023-04-18T08:07:03.211Z,8.85
2023-04-18T08:09:36.826Z,8.95
2023-04-18T08:12:06.286Z,8.10
2023-04-18T08:14:34.894Z,9.10
2023-04-18T08:17:43.476Z,8.55
2023-04-18T08:20:19.450Z,8.48
2023-04-18T08:23:05.618Z,8.63
2023-04-18T08:25:36.189Z,9.52
2023-04-18T08:28:04.844Z,8.48
2023-04-18T08:30:33.942Z,10.35
2023-04-18T08:35:55.165Z,8.65
2023-04-18T08:38:24.796Z,9.48
2023-04-18T08:40:54.884Z,8.60
2023-04-18T08:48:55.836Z,8.77
2023-04-18T08:54:10.250Z,8.95
2023-04-18T08:56:38.007Z,8.80
2023-04-18T09:02:04.640Z,8.63
2023-04-18T09:04:37.626Z,9.18
2023-04-18T09:07:17.408Z,9.07
2023-04-18T09:09:50.632Z,8.15
2023-04-18T09:12:25.817Z,8.90
2023-04-18T09:14:58.000Z,8.70
2023-04-18T09:17:44.736Z,9.05
2023-04-18T09:20:17.603Z,8.55
2023-04-18T09:23:02.526Z,8.82
2023-04-18T09:25:46.273Z,8.20
2023-04-18T09:28:37.056Z,8.23
2023-04-18T09:34:10.948Z,7.95
2023-04-18T09:39:31.362Z,7.57
2023-04-18T09:42:06.121Z,8.25
2023-04-18T09:45:09.023Z,7.40
2023-04-18T09:47:40.698Z,7.43
2023-04-18T09:50:11.320Z,7.68
2023-04-18T09:52:43.589Z,7.55
2023-04-18T09:55:26.162Z,7.40
2023-04-18T09:58:00.235Z,7.85
2023-04-18T10:00:30.727Z,8.32
2023-04-18T10:03:04.292Z,7.63
2023-04-18T10:05:38.710Z,7.90
2023-04-18T10:08:15.838Z,7.60
2023-04-18T10:10:48.182Z,7.15
2023-04-18T10:16:21.615Z,6.95
2023-04-18T10:18:52.301Z,7.35
2023-04-18T10:21:22.222Z,7.60
2023-04-18T10:23:57.989Z,7.30
2023-04-18T10:26:50.472Z,7.10
2023-04-18T10:29:19.814Z,7.10
2023-04-18T10:32:00.897Z,6.53
2023-04-18T10:34:32.369Z,6.25
2023-04-18T10:37:17.996Z,6.47
2023-04-18T10:39:53.948Z,6.18
2023-04-18T10:42:54.219Z,6.18
2023-04-18T10:48:34.360Z,6.53
2023-04-18T10:51:18.008Z,6.72
2023-04-18T10:53:54.334Z,6.15
2023-04-18T10:56:31.295Z,7.00
2023-04-18T10:59:11.524Z,6.22
2023-04-18T11:07:17.290Z,7.20
2023-04-18T11:09:58.949Z,7.13
2023-04-18T11:12:35.497Z,7.40
2023-04-18T11:15:11.229Z,6.75
2023-04-18T11:17:42.926Z,7.00
2023-04-18T11:20:14.456Z,6.38
2023-04-18T11:25:39.577Z,6.40
2023-04-18T11:46:05.566Z,5.88
2023-04-18T11:57:56.758Z,4.72
2023-04-18T12:03:30.031Z,5.05
2023-04-18T12:14:29.590Z,5.43
2023-04-18T12:31:58.268Z,4.95
2023-04-18T12:52:17.394Z,4.95
2023-04-18T13:04:13.156Z,4.53
2023-04-18T13:09:52.703Z,4.05
2023-04-18T13:12:20.034Z,4.50
2023-04-18T13:14:53.916Z,4.30
2023-04-18T13:17:27.437Z,4.40
2023-04-18T13:20:01.951Z,4.70
2023-04-18T13:22:31.335Z,4.60
2023-04-18T13:25:04.142Z,4.50
2023-04-18T13:27:38.992Z,4.40
2023-04-18T13:30:10.120Z,4.25
2023-04-18T13:32:40.449Z,4.13
2023-04-18T13:35:12.561Z,4.50
2023-04-18T13:49:51.376Z,4.57
2023-04-18T13:52:27.529Z,4.30
2023-04-18T13:55:05.937Z,4.50
2023-04-18T13:57:36.536Z,3.95
2023-04-18T14:02:45.585Z,4.38
2023-04-18T14:08:02.646Z,4.97
2023-04-18T14:10:31.113Z,5.78
2023-04-18T14:13:02.856Z,5.90
2023-04-18T14:15:32.135Z,5.50
2023-04-18T14:17:59.618Z,6.40
2023-04-18T14:45:29.690Z,10.68
2023-04-18T14:53:56.772Z,9.90
2023-04-18T15:16:27.486Z,9.27
2023-04-18T15:19:01.441Z,9.63
2023-04-18T15:33:50.108Z,9.68
2023-04-18T15:36:29.276Z,10.40
2023-04-18T15:39:04.512Z,9.45
2023-04-18T15:41:36.234Z,10.15
2023-04-18T15:49:59.912Z,10.13
2023-04-18T15:52:27.171Z,9.55
2023-04-18T16:07:19.766Z,9.82
2023-04-18T16:16:07.937Z,9.50
2023-04-18T16:18:45.696Z,9.35
2023-04-18T16:24:01.287Z,9.35
2023-04-18T16:26:34.792Z,8.52
2023-04-18T16:34:33.526Z,8.60
2023-04-18T16:51:03.882Z,7.88
2023-04-18T16:53:43.513Z,8.20
2023-04-18T16:56:14.338Z,8.50
2023-04-18T16:58:53.728Z,8.50
2023-04-18T17:01:30.120Z,7.40
2023-04-18T17:04:06.841Z,7.80
2023-04-18T17:06:36.053Z,7.57
2023-04-18T17:09:25.926Z,8.02
2023-04-18T17:14:45.756Z,7.40
2023-04-18T17:17:32.394Z,8.00
2023-04-18T17:26:15.212Z,7.90
2023-04-18T17:29:03.822Z,7.75
2023-04-18T17:36:57.478Z,7.60
2023-04-18T17:45:30.262Z,8.02
2023-04-18T17:59:12.534Z,8.40
2023-04-18T18:08:31.875Z,8.18
2023-04-18T18:17:15.781Z,8.60
2023-04-18T18:25:56.432Z,9.23
2023-04-18T18:31:51.948Z,8.80
2023-04-18T18:34:49.814Z,9.18
2023-04-18T18:45:41.272Z,9.68
2023-04-18T18:48:11.209Z,9.25
2023-04-18T18:59:09.618Z,10.43
2023-04-18T19:02:04.448Z,9.57
2023-04-18T19:10:01.224Z,10.48
2023-04-18T19:13:20.530Z,9.95
2023-04-18T19:18:51.771Z,9.85
2023-04-18T19:21:29.274Z,10.20
2023-04-18T19:26:53.681Z,10.15
2023-04-18T19:29:26.775Z,9.43
2023-04-18T19:32:09.238Z,9.77
2023-04-18T19:45:05.658Z,10.15
2023-04-18T19:52:12.250Z,9.82
2023-04-18T21:04:11.001Z,8.93
2023-04-18T21:15:17.901Z,8.13
2023-04-18T21:17:52.973Z,8.50
2023-04-18T21:43:11.984Z,6.93
2023-04-18T21:45:44.850Z,7.68
2023-04-18T21:56:45.957Z,7.03
2023-04-18T21:59:38.876Z,7.63
2023-04-18T22:02:13.567Z,7.03
2023-04-18T22:04:43.113Z,7.45
2023-04-18T22:07:25.109Z,6.90
2023-04-18T22:13:08.242Z,7.22
2023-04-18T22:18:32.173Z,7.03
2023-04-18T22:24:10.509Z,6.85
2023-04-18T22:26:40.307Z,6.50
2023-04-18T22:29:35.305Z,6.82
2023-04-18T22:38:05.375Z,6.45
2023-04-18T22:43:29.903Z,5.65
2023-04-18T22:46:08.578Z,5.80
2023-04-18T22:51:54.672Z,6.15
2023-04-18T22:57:09.823Z,5.88
2023-04-18T23:02:21.153Z,6.05
2023-04-18T23:04:49.760Z,6.47
2023-04-18T23:07:17.734Z,6.22
2023-04-18T23:09:46.957Z,6.10
2023-04-18T23:12:16.295Z,5.55
2023-04-18T23:17:27.032Z,5.78
2023-04-18T23:19:57.695Z,5.97
2023-04-18T23:30:20.988Z,6.03
2023-04-18T23:32:48.000Z,5.57
2023-04-18T23:35:24.094Z,6.00
2023-04-18T23:40:33.253Z,6.07
2023-04-18T23:43:03.303Z,6.50
2023-04-18T23:45:31.899Z,5.78
2023-04-18T23:48:00.233Z,6.20
2023-04-18T23:50:31.056Z,6.20
2023-04-18T23:55:29.846Z,5.72
2023-04-18T23:57:58.350Z,6.28
